SUV weather

Nausori International Airport
Nausori, Central, Fiji

Public forecast

Using degrees Celsius for public forecast. Weather courtesy of forecast.io.

Current aviation weather report (METAR) for Nausori International Airport

Retrieved 2019/10/13 19:00 UTC (51 minutes ago):

NFNA 131900Z 08007KT 9999 SCT020 SCT045 25/22 Q1012

Aviation forecast (TAF) for Nausori International Airport

Retrieved 2019/10/13 18:00 UTC (2 hours ago):

TAF NFNA 131703Z 1318/1418 10009KT 9999 SCT020 SCT045 PROB40 TEMPO 1402/1406 5000 SHRA BKN015